createdAt,value
2019-01-19T00:01:16.238Z,13.00
2019-01-19T00:03:10.589Z,16.65
2019-01-19T00:04:47.043Z,13.32
2019-01-19T00:06:22.915Z,15.35
2019-01-19T00:08:02.782Z,15.75
2019-01-19T00:09:38.255Z,16.48
2019-01-19T00:11:20.699Z,16.20
2019-01-19T00:12:42.946Z,12.60
2019-01-19T00:14:15.125Z,15.40
2019-01-19T00:15:31.011Z,15.58
2019-01-19T00:16:44.286Z,15.10
2019-01-19T00:18:19.848Z,15.03
2019-01-19T00:20:03.527Z,16.67
2019-01-19T00:21:39.594Z,17.05
2019-01-19T00:23:23.700Z,17.62
2019-01-19T00:24:50.142Z,15.58
2019-01-19T00:26:36.077Z,14.70
2019-01-19T00:28:21.602Z,18.23
2019-01-19T00:29:46.758Z,16.50
2019-01-19T00:31:35.083Z,16.45
2019-01-19T00:33:10.961Z,14.00
2019-01-19T00:34:42.176Z,15.20
2019-01-19T00:36:31.556Z,21.15
2019-01-19T00:37:44.766Z,18.82
2019-01-19T00:39:27.210Z,17.67
2019-01-19T00:40:58.624Z,20.00
2019-01-19T00:42:11.886Z,23.00
2019-01-19T00:43:31.347Z,20.43
2019-01-19T00:44:52.331Z,21.70
2019-01-19T00:46:36.078Z,23.47
2019-01-19T00:48:21.274Z,27.58
2019-01-19T00:49:46.394Z,21.30
2019-01-19T00:51:33.059Z,20.65
2019-01-19T00:52:55.233Z,20.23
2019-01-19T00:54:05.807Z,21.85
2019-01-19T00:55:53.926Z,20.57
2019-01-19T00:57:29.354Z,22.13
2019-01-19T00:58:53.766Z,20.55
2019-01-19T01:00:01.955Z,19.73
2019-01-19T01:01:45.748Z,18.42
2019-01-19T01:03:24.555Z,16.20
2019-01-19T01:04:54.585Z,23.30
2019-01-19T01:06:34.142Z,18.62
2019-01-19T01:08:11.882Z,19.35
2019-01-19T01:09:47.775Z,19.90
2019-01-19T01:11:20.478Z,23.02
2019-01-19T01:12:56.979Z,21.02
2019-01-19T01:14:37.282Z,17.42
2019-01-19T01:15:56.214Z,18.65
2019-01-19T01:17:32.107Z,18.60
2019-01-19T01:18:55.642Z,18.20
2019-01-19T01:20:38.390Z,16.35
2019-01-19T01:22:14.016Z,15.25
2019-01-19T01:24:01.160Z,16.25
2019-01-19T01:25:40.203Z,15.05
2019-01-19T01:27:06.006Z,17.75
2019-01-19T01:28:37.407Z,16.02
2019-01-19T01:30:20.489Z,12.80
2019-01-19T01:31:50.935Z,16.70
2019-01-19T01:33:46.024Z,15.05
2019-01-19T01:35:09.500Z,18.48
2019-01-19T01:36:51.961Z,16.32
2019-01-19T01:38:12.398Z,17.80
2019-01-19T01:40:03.991Z,15.40
2019-01-19T01:41:55.542Z,14.83
2019-01-19T01:43:46.803Z,13.62
2019-01-19T01:45:16.282Z,16.17
2019-01-19T01:46:44.942Z,13.90
2019-01-19T01:48:26.352Z,15.45
2019-01-19T01:49:45.323Z,15.75
2019-01-19T01:51:10.444Z,16.52
2019-01-19T01:52:36.320Z,14.33
2019-01-19T01:54:14.689Z,12.85
2019-01-19T01:55:35.133Z,14.53
2019-01-19T01:56:40.058Z,15.35
2019-01-19T01:57:56.022Z,19.10
2019-01-19T01:59:37.231Z,14.98
2019-01-19T02:01:02.969Z,18.82
2019-01-19T02:02:40.439Z,14.23
2019-01-19T02:04:34.437Z,14.50
2019-01-19T02:06:13.256Z,14.58
2019-01-19T02:07:52.652Z,13.03
2019-01-19T02:09:32.139Z,12.00
2019-01-19T02:11:04.588Z,14.45
2019-01-19T02:12:45.490Z,12.63
2019-01-19T02:14:28.436Z,13.72
2019-01-19T02:16:00.660Z,15.32
2019-01-19T02:17:32.995Z,13.30
2019-01-19T02:19:16.371Z,14.68
2019-01-19T02:20:46.455Z,12.53
2019-01-19T02:22:24.203Z,14.87
2019-01-19T02:23:53.571Z,12.60
2019-01-19T02:25:22.531Z,14.47
2019-01-19T02:27:22.868Z,14.68
2019-01-19T02:28:53.298Z,14.15
2019-01-19T02:30:25.276Z,12.90
2019-01-19T02:31:53.457Z,14.45
2019-01-19T02:33:38.240Z,15.70
2019-01-19T02:35:22.759Z,18.42
2019-01-19T02:37:10.840Z,16.60
2019-01-19T02:38:46.892Z,13.13
2019-01-19T02:40:42.506Z,12.30
2019-01-19T02:42:35.257Z,12.95
2019-01-19T02:44:15.333Z,11.80
2019-01-19T02:45:50.019Z,13.62
2019-01-19T02:47:45.833Z,14.83
2019-01-19T02:49:26.871Z,11.28
2019-01-19T02:50:39.107Z,14.65
2019-01-19T02:52:31.810Z,14.63
2019-01-19T02:53:59.188Z,12.85
2019-01-19T02:55:30.679Z,10.65
2019-01-19T02:57:25.974Z,13.62
2019-01-19T02:59:26.719Z,13.28
2019-01-19T03:01:24.324Z,13.28
2019-01-19T03:03:24.339Z,10.43
2019-01-19T03:04:42.869Z,13.28
2019-01-19T03:06:31.289Z,11.70
2019-01-19T03:08:02.460Z,12.05
2019-01-19T03:09:37.183Z,10.25
2019-01-19T03:11:31.619Z,14.78
2019-01-19T03:13:07.776Z,14.60
2019-01-19T03:14:52.296Z,13.78
2019-01-19T03:16:31.203Z,13.70
2019-01-19T03:17:56.405Z,12.73
2019-01-19T03:19:19.331Z,13.43
2019-01-19T03:20:55.275Z,14.30
2019-01-19T03:22:12.867Z,10.88
2019-01-19T03:24:07.260Z,16.77
2019-01-19T03:25:40.233Z,11.88
2019-01-19T03:27:16.939Z,13.03
2019-01-19T03:28:41.508Z,11.38
2019-01-19T03:30:10.114Z,10.10
2019-01-19T03:31:36.676Z,10.82
2019-01-19T03:33:20.762Z,10.75
2019-01-19T03:35:15.287Z,11.10
2019-01-19T03:37:15.488Z,11.18
2019-01-19T03:38:59.791Z,11.35
2019-01-19T03:40:51.083Z,11.22
2019-01-19T03:42:35.507Z,9.50
2019-01-19T03:44:08.161Z,12.78
2019-01-19T03:46:01.448Z,14.58
2019-01-19T03:47:43.558Z,12.35
2019-01-19T03:49:22.955Z,11.53
2019-01-19T03:50:49.455Z,10.75
2019-01-19T03:52:00.891Z,12.45
2019-01-19T03:53:39.972Z,11.00
2019-01-19T03:54:57.129Z,14.30
2019-01-19T03:56:44.338Z,15.35
2019-01-19T03:58:02.742Z,10.15
2019-01-19T03:59:45.419Z,9.15
2019-01-19T04:01:42.736Z,11.85
2019-01-19T04:03:13.487Z,9.65
2019-01-19T04:05:07.842Z,11.90
2019-01-19T04:06:29.226Z,10.18
2019-01-19T04:08:00.100Z,9.58
2019-01-19T04:09:36.107Z,8.75
2019-01-19T04:11:13.055Z,8.13
2019-01-19T04:12:49.167Z,8.58
2019-01-19T04:14:29.879Z,9.18
2019-01-19T04:16:36.401Z,8.13
2019-01-19T04:18:27.799Z,13.70
2019-01-19T04:20:07.854Z,8.20
2019-01-19T04:21:50.501Z,10.23
2019-01-19T04:22:59.223Z,12.40
2019-01-19T04:24:17.029Z,9.00
2019-01-19T04:25:48.166Z,9.35
2019-01-19T04:26:55.348Z,11.97
2019-01-19T04:28:01.020Z,8.93
2019-01-19T04:29:05.136Z,17.20
2019-01-19T04:30:11.523Z,11.05
2019-01-19T04:31:15.617Z,10.65
2019-01-19T04:32:19.747Z,10.23
2019-01-19T04:33:23.907Z,10.38
2019-01-19T04:34:28.078Z,10.45
2019-01-19T04:35:32.203Z,11.73
2019-01-19T04:36:36.652Z,9.98
2019-01-19T04:37:40.698Z,10.85
2019-01-19T04:38:44.875Z,11.33
2019-01-19T04:39:48.928Z,9.75
2019-01-19T04:40:52.974Z,9.95
2019-01-19T04:41:57.043Z,9.63
2019-01-19T04:43:01.228Z,13.15
2019-01-19T04:44:05.303Z,9.68
2019-01-19T04:45:09.725Z,9.05
2019-01-19T04:46:14.025Z,9.13
2019-01-19T04:47:18.114Z,11.73
2019-01-19T04:48:22.661Z,10.40
2019-01-19T04:49:26.734Z,12.00
2019-01-19T04:50:30.860Z,9.60
2019-01-19T04:51:34.914Z,10.60
2019-01-19T04:52:38.970Z,10.13
2019-01-19T04:53:43.039Z,10.95
2019-01-19T04:54:48.436Z,8.83
2019-01-19T04:55:52.526Z,9.38
2019-01-19T04:56:56.083Z,11.70
2019-01-19T04:58:00.169Z,11.95
2019-01-19T04:59:04.250Z,10.03
2019-01-19T05:00:15.384Z,9.78
2019-01-19T05:01:19.439Z,10.13
2019-01-19T05:02:23.491Z,8.40
2019-01-19T05:03:27.572Z,11.00
2019-01-19T05:04:31.632Z,11.88
2019-01-19T05:05:35.747Z,8.98
2019-01-19T05:06:39.799Z,10.48
2019-01-19T05:07:43.834Z,7.50
2019-01-19T05:08:47.924Z,8.30
2019-01-19T05:09:51.975Z,12.65
2019-01-19T05:10:56.022Z,9.40
2019-01-19T05:12:00.078Z,12.50
2019-01-19T05:13:04.133Z,8.13
2019-01-19T05:14:08.214Z,12.28
2019-01-19T05:15:15.000Z,10.68
2019-01-19T05:16:19.053Z,15.88
2019-01-19T05:17:23.117Z,12.30
2019-01-19T05:18:27.271Z,10.78
2019-01-19T05:19:31.347Z,10.00
2019-01-19T05:20:35.394Z,19.92
2019-01-19T05:21:39.512Z,12.68
2019-01-19T05:22:43.579Z,11.05
2019-01-19T05:23:47.631Z,15.68
2019-01-19T05:24:51.702Z,9.88
2019-01-19T05:25:55.787Z,11.22
2019-01-19T05:26:59.852Z,13.72
2019-01-19T05:28:03.903Z,7.83
2019-01-19T05:29:08.176Z,10.32
2019-01-19T05:30:17.379Z,8.95
2019-01-19T05:31:21.460Z,16.77
2019-01-19T05:32:26.111Z,11.53
2019-01-19T05:33:30.178Z,27.17
2019-01-19T05:34:34.432Z,26.77
2019-01-19T05:35:38.495Z,17.95
2019-01-19T05:36:42.622Z,10.50
2019-01-19T05:37:46.678Z,8.15
2019-01-19T05:38:50.735Z,11.43
2019-01-19T05:39:54.830Z,10.18
2019-01-19T05:40:58.895Z,8.38
2019-01-19T05:42:02.964Z,8.13
2019-01-19T05:43:07.106Z,10.93
2019-01-19T05:44:11.384Z,12.37
2019-01-19T05:45:15.826Z,10.05
2019-01-19T05:46:21.537Z,12.40
2019-01-19T05:47:25.811Z,12.95
2019-01-19T05:48:29.925Z,14.45
2019-01-19T05:49:33.975Z,15.63
2019-01-19T05:50:38.043Z,10.15
2019-01-19T05:51:42.160Z,9.73
2019-01-19T05:52:46.228Z,12.37
2019-01-19T05:53:50.290Z,8.88
2019-01-19T05:54:54.340Z,9.43
2019-01-19T05:55:58.407Z,8.63
2019-01-19T05:57:02.474Z,10.95
2019-01-19T05:58:06.522Z,11.83
2019-01-19T05:59:10.683Z,10.08
2019-01-19T06:00:20.360Z,9.40
2019-01-19T06:01:24.936Z,8.78
2019-01-19T06:02:29.105Z,9.00
2019-01-19T06:03:33.219Z,10.50
2019-01-19T06:04:37.318Z,15.85
2019-01-19T06:05:41.902Z,10.98
2019-01-19T06:06:46.938Z,10.28
2019-01-19T06:07:51.393Z,8.80
2019-01-19T06:08:55.507Z,9.73
2019-01-19T06:09:59.596Z,9.95
2019-01-19T06:11:03.674Z,11.60
2019-01-19T06:12:07.764Z,9.60
2019-01-19T06:13:11.858Z,11.38
2019-01-19T06:14:15.988Z,10.40
2019-01-19T06:15:20.054Z,11.20
2019-01-19T06:16:24.125Z,9.80
2019-01-19T06:17:28.184Z,11.00
2019-01-19T06:18:33.507Z,10.72
2019-01-19T06:19:37.660Z,8.85
2019-01-19T06:20:41.714Z,10.72
2019-01-19T06:21:51.991Z,8.53
2019-01-19T06:22:56.069Z,7.40
2019-01-19T06:24:00.119Z,9.10
2019-01-19T06:25:04.454Z,10.75
2019-01-19T06:26:08.587Z,8.90
2019-01-19T06:27:12.714Z,8.95
2019-01-19T06:28:16.775Z,6.80
2019-01-19T06:29:20.852Z,7.78
2019-01-19T06:30:25.129Z,9.80
2019-01-19T06:31:29.196Z,11.12
2019-01-19T06:32:33.287Z,11.78
2019-01-19T06:33:37.357Z,8.90
2019-01-19T06:34:41.423Z,11.63
2019-01-19T06:35:45.523Z,11.55
2019-01-19T06:36:54.911Z,7.97
2019-01-19T06:37:55.381Z,8.35
2019-01-19T06:38:59.474Z,11.03
2019-01-19T06:40:03.612Z,7.55
2019-01-19T06:41:07.988Z,9.18
2019-01-19T06:42:12.351Z,8.68
2019-01-19T06:43:16.411Z,9.05
2019-01-19T06:44:20.463Z,7.85
2019-01-19T06:45:25.983Z,7.53
2019-01-19T06:46:30.035Z,8.70
2019-01-19T06:47:34.107Z,15.03
2019-01-19T06:48:38.213Z,8.80
2019-01-19T06:49:42.256Z,8.23
2019-01-19T06:50:46.312Z,10.72
2019-01-19T06:51:50.423Z,8.85
2019-01-19T06:52:54.551Z,10.50
2019-01-19T06:54:01.762Z,8.85
2019-01-19T06:55:04.929Z,7.33
2019-01-19T06:56:09.160Z,9.13
2019-01-19T06:57:13.373Z,11.10
2019-01-19T06:58:17.457Z,11.63
2019-01-19T06:59:21.519Z,6.80
2019-01-19T07:00:25.576Z,13.43
2019-01-19T07:01:29.699Z,16.42
2019-01-19T07:02:33.752Z,14.55
2019-01-19T07:03:39.638Z,9.98
2019-01-19T07:04:43.691Z,10.38
2019-01-19T07:05:47.799Z,7.67
2019-01-19T07:06:51.858Z,10.48
2019-01-19T07:07:55.924Z,14.68
2019-01-19T07:09:00.007Z,14.93
2019-01-19T07:10:04.292Z,11.43
2019-01-19T07:11:08.456Z,10.23
2019-01-19T07:12:12.954Z,9.78
2019-01-19T07:13:17.024Z,7.97
2019-01-19T07:14:21.087Z,9.80
2019-01-19T07:15:25.157Z,13.10
2019-01-19T07:16:29.335Z,18.15
2019-01-19T07:17:33.407Z,13.65
2019-01-19T07:18:37.560Z,13.48
2019-01-19T07:19:41.627Z,9.50
2019-01-19T07:20:45.696Z,18.17
2019-01-19T07:21:49.757Z,15.10
2019-01-19T07:22:53.814Z,9.28
2019-01-19T07:23:58.034Z,10.95
2019-01-19T07:25:02.115Z,10.03
2019-01-19T07:26:06.195Z,8.65
2019-01-19T07:27:10.423Z,10.32
2019-01-19T07:28:14.505Z,7.20
2019-01-19T07:29:18.601Z,8.23
2019-01-19T07:30:22.667Z,8.03
2019-01-19T07:31:28.161Z,6.25
2019-01-19T07:32:32.371Z,9.13
2019-01-19T07:33:36.426Z,11.22
2019-01-19T07:34:40.524Z,13.20
2019-01-19T07:35:44.568Z,8.90
2019-01-19T07:36:48.641Z,9.03
2019-01-19T07:37:52.765Z,7.47
2019-01-19T07:38:56.821Z,9.40
2019-01-19T07:40:00.906Z,10.10
2019-01-19T07:41:04.978Z,8.55
2019-01-19T07:42:08.624Z,12.37
2019-01-19T07:43:14.449Z,10.48
2019-01-19T07:44:18.553Z,10.95
2019-01-19T07:45:22.643Z,8.43
2019-01-19T07:46:26.907Z,9.93
2019-01-19T07:47:31.073Z,10.63
2019-01-19T07:48:35.156Z,12.18
2019-01-19T07:49:39.261Z,12.75
2019-01-19T07:50:43.395Z,10.32
2019-01-19T07:51:47.491Z,10.50
2019-01-19T07:52:51.542Z,7.60
2019-01-19T07:53:55.615Z,8.70
2019-01-19T07:54:59.691Z,8.90
2019-01-19T07:56:03.763Z,8.40
2019-01-19T07:57:07.853Z,9.83
2019-01-19T07:58:12.051Z,8.85
2019-01-19T07:59:16.104Z,8.05
2019-01-19T08:00:22.683Z,9.23
2019-01-19T08:01:26.744Z,7.97
2019-01-19T08:02:30.815Z,6.60
2019-01-19T08:03:34.887Z,10.60
2019-01-19T08:04:38.946Z,9.13
2019-01-19T08:05:43.038Z,9.03
2019-01-19T08:06:47.104Z,8.63
2019-01-19T08:07:51.167Z,6.83
2019-01-19T08:08:55.237Z,11.05
2019-01-19T08:09:59.311Z,12.15
2019-01-19T08:11:03.394Z,13.70
2019-01-19T08:12:07.485Z,7.10
2019-01-19T08:13:11.696Z,8.95
2019-01-19T08:14:15.762Z,8.40
2019-01-19T08:15:21.928Z,5.65
2019-01-19T08:16:26.011Z,7.80
2019-01-19T08:17:30.071Z,7.15
2019-01-19T08:18:34.144Z,8.03
2019-01-19T08:19:38.207Z,9.48
2019-01-19T08:20:42.283Z,6.55
2019-01-19T08:21:46.358Z,5.28
2019-01-19T08:22:50.485Z,7.60
2019-01-19T08:23:54.568Z,8.33
2019-01-19T08:24:58.667Z,8.33
2019-01-19T08:26:02.768Z,6.45
2019-01-19T08:27:06.861Z,6.45
2019-01-19T08:28:11.038Z,6.50
2019-01-19T08:29:15.820Z,6.25
2019-01-19T08:30:27.491Z,6.33
2019-01-19T08:31:32.113Z,6.05
2019-01-19T08:32:36.191Z,8.00
2019-01-19T08:33:40.272Z,5.53
2019-01-19T08:34:44.339Z,8.20
2019-01-19T08:35:48.554Z,5.45
2019-01-19T08:36:52.655Z,7.22
2019-01-19T08:37:56.719Z,9.45
2019-01-19T08:39:00.795Z,10.30
2019-01-19T08:40:05.518Z,9.98
2019-01-19T08:41:09.658Z,9.30
2019-01-19T08:42:13.910Z,7.37
2019-01-19T08:43:52.157Z,5.70
2019-01-19T08:44:56.868Z,6.67
2019-01-19T08:46:02.219Z,7.80
2019-01-19T08:47:06.528Z,9.93
2019-01-19T08:48:11.052Z,11.33
2019-01-19T08:49:15.116Z,12.75
2019-01-19T08:50:19.189Z,11.38
2019-01-19T08:51:23.275Z,7.00
2019-01-19T08:52:27.551Z,6.05
2019-01-19T08:53:31.685Z,8.13
2019-01-19T08:54:35.751Z,6.53
2019-01-19T08:55:39.810Z,8.08
2019-01-19T08:56:43.892Z,10.48
2019-01-19T08:57:48.135Z,7.47
2019-01-19T08:58:55.151Z,5.62
2019-01-19T08:59:59.353Z,8.15
2019-01-19T09:01:03.415Z,5.83
2019-01-19T09:02:07.496Z,7.85
2019-01-19T09:03:11.774Z,7.33
2019-01-19T09:04:15.946Z,5.08
2019-01-19T09:05:20.032Z,3.95
2019-01-19T09:06:24.124Z,5.58
2019-01-19T09:07:33.656Z,5.05
2019-01-19T09:08:34.175Z,6.40
2019-01-19T09:09:38.246Z,6.75
2019-01-19T09:10:42.376Z,5.60
2019-01-19T09:11:46.687Z,4.83
2019-01-19T09:12:50.763Z,7.87
2019-01-19T09:13:54.872Z,5.83
2019-01-19T09:14:58.930Z,7.65
2019-01-19T09:16:08.470Z,5.25
2019-01-19T09:17:12.644Z,5.53
2019-01-19T09:18:22.227Z,4.50
2019-01-19T09:19:36.160Z,5.00
2019-01-19T09:20:45.588Z,6.00
2019-01-19T09:21:51.739Z,4.20
2019-01-19T09:23:30.024Z,4.75
2019-01-19T09:24:34.963Z,5.10
2019-01-19T09:25:40.872Z,4.97
2019-01-19T09:26:50.523Z,8.90
2019-01-19T09:28:00.904Z,5.75
2019-01-19T09:29:14.058Z,7.97
2019-01-19T09:30:21.860Z,5.95
2019-01-19T09:31:28.227Z,5.72
2019-01-19T09:32:41.588Z,5.25
2019-01-19T09:33:47.307Z,7.28
2019-01-19T09:35:05.950Z,6.08
2019-01-19T09:36:12.516Z,6.50
2019-01-19T09:37:18.829Z,10.40
2019-01-19T09:38:26.244Z,7.65
2019-01-19T09:39:37.002Z,7.40
2019-01-19T09:40:50.116Z,6.87
2019-01-19T09:42:06.260Z,7.20
2019-01-19T09:43:18.304Z,6.05
2019-01-19T09:44:37.372Z,9.25
2019-01-19T09:46:01.513Z,6.15
2019-01-19T09:47:14.956Z,11.30
2019-01-19T09:48:22.386Z,6.20
2019-01-19T09:49:26.523Z,5.00
2019-01-19T09:50:30.647Z,5.47
2019-01-19T09:51:34.750Z,6.15
2019-01-19T09:52:38.807Z,4.22
2019-01-19T09:53:42.872Z,8.03
2019-01-19T09:54:46.959Z,7.87
2019-01-19T09:55:51.035Z,4.65
2019-01-19T09:56:55.224Z,7.28
2019-01-19T09:57:59.299Z,5.17
2019-01-19T09:59:03.387Z,5.17
2019-01-19T10:00:10.766Z,5.97
2019-01-19T10:01:15.391Z,5.47
2019-01-19T10:02:19.474Z,7.03
2019-01-19T10:03:23.525Z,4.97
2019-01-19T10:04:27.779Z,5.83
2019-01-19T10:05:31.874Z,5.85
2019-01-19T10:06:35.942Z,6.72
2019-01-19T10:07:40.019Z,5.10
2019-01-19T10:08:44.091Z,8.23
2019-01-19T10:09:48.276Z,5.62
2019-01-19T10:10:52.443Z,7.90
2019-01-19T10:11:56.531Z,5.90
2019-01-19T10:13:00.651Z,6.83
2019-01-19T10:14:06.108Z,9.85
2019-01-19T10:15:11.915Z,7.90
2019-01-19T10:16:16.043Z,6.55
2019-01-19T10:17:20.190Z,3.83
2019-01-19T10:18:24.599Z,5.67
2019-01-19T10:19:28.727Z,5.85
2019-01-19T10:20:32.835Z,5.92
2019-01-19T10:21:36.899Z,4.12
2019-01-19T10:22:40.976Z,7.78
2019-01-19T10:23:45.062Z,2.65
2019-01-19T10:24:49.133Z,5.20
2019-01-19T10:25:53.255Z,7.60
2019-01-19T10:26:57.319Z,4.08
2019-01-19T10:28:01.367Z,5.50
2019-01-19T10:29:05.779Z,4.80
2019-01-19T10:30:21.837Z,5.35
2019-01-19T10:31:25.907Z,6.53
2019-01-19T10:32:30.010Z,6.28
2019-01-19T10:33:34.092Z,5.03
2019-01-19T10:34:38.159Z,6.45
2019-01-19T10:35:42.254Z,7.00
2019-01-19T10:36:46.299Z,7.30
2019-01-19T10:37:56.095Z,6.67
2019-01-19T10:38:56.174Z,6.80
2019-01-19T10:40:00.231Z,6.53
2019-01-19T10:41:04.310Z,5.20
2019-01-19T10:42:08.462Z,7.17
2019-01-19T10:43:12.630Z,8.25
2019-01-19T10:44:16.711Z,9.30
2019-01-19T10:45:22.726Z,7.65
2019-01-19T10:46:26.807Z,6.17
2019-01-19T10:47:30.880Z,6.17
2019-01-19T10:48:34.970Z,8.10
2019-01-19T10:49:39.121Z,6.75
2019-01-19T10:50:43.263Z,7.87
2019-01-19T10:51:47.363Z,7.20
2019-01-19T10:52:51.481Z,5.53
2019-01-19T10:53:55.613Z,5.42
2019-01-19T10:54:59.711Z,6.08
2019-01-19T10:56:03.818Z,5.17
2019-01-19T10:57:07.990Z,6.60
2019-01-19T10:58:12.310Z,7.33
2019-01-19T10:59:16.392Z,6.80
2019-01-19T11:00:22.966Z,8.35
2019-01-19T11:01:27.179Z,7.40
2019-01-19T11:02:31.315Z,6.20
2019-01-19T11:03:35.382Z,8.15
2019-01-19T11:04:39.467Z,6.80
2019-01-19T11:05:43.532Z,9.75
2019-01-19T11:06:47.594Z,7.42
2019-01-19T11:07:51.698Z,7.10
2019-01-19T11:08:55.770Z,5.92
2019-01-19T11:09:59.857Z,7.22
2019-01-19T11:11:03.945Z,8.15
2019-01-19T11:12:08.211Z,6.15
2019-01-19T11:13:12.395Z,4.53
2019-01-19T11:14:16.459Z,9.38
2019-01-19T11:15:20.535Z,9.30
2019-01-19T11:16:24.595Z,6.05
2019-01-19T11:17:28.806Z,6.67
2019-01-19T11:18:32.903Z,6.92
2019-01-19T11:19:36.996Z,8.45
2019-01-19T11:20:41.147Z,7.80
2019-01-19T11:21:45.220Z,7.37
2019-01-19T11:22:49.278Z,6.17
2019-01-19T11:23:53.396Z,5.72
2019-01-19T11:24:57.443Z,5.97
2019-01-19T11:26:01.623Z,5.12
2019-01-19T11:27:05.816Z,4.85
2019-01-19T11:28:09.976Z,4.25
2019-01-19T11:29:14.211Z,6.90
2019-01-19T11:30:20.355Z,7.80
2019-01-19T11:31:24.430Z,9.08
2019-01-19T11:32:28.687Z,3.98
2019-01-19T11:33:32.777Z,4.65
2019-01-19T11:34:36.838Z,5.15
2019-01-19T11:35:40.907Z,4.75
2019-01-19T11:36:45.020Z,5.60
2019-01-19T11:37:49.255Z,4.62
2019-01-19T11:38:53.319Z,4.97
2019-01-19T11:39:57.395Z,5.17
2019-01-19T11:41:01.479Z,5.97
2019-01-19T11:42:05.551Z,8.80
2019-01-19T11:43:10.871Z,6.60
2019-01-19T11:44:14.986Z,4.53
2019-01-19T11:45:20.608Z,6.25
2019-01-19T11:46:25.014Z,5.28
2019-01-19T11:47:29.092Z,5.78
2019-01-19T11:48:33.157Z,5.58
2019-01-19T11:49:37.272Z,6.58
2019-01-19T11:50:41.447Z,4.92
2019-01-19T11:51:45.578Z,2.70
2019-01-19T11:52:49.765Z,9.70
2019-01-19T11:53:53.909Z,3.15
2019-01-19T11:54:58.062Z,4.42
2019-01-19T11:56:02.139Z,4.58
2019-01-19T11:57:06.349Z,5.10
2019-01-19T11:58:10.704Z,6.80
2019-01-19T11:59:14.889Z,5.58
2019-01-19T12:00:20.704Z,6.12
2019-01-19T12:01:24.760Z,5.65
2019-01-19T12:02:29.076Z,6.25
2019-01-19T12:03:33.134Z,5.30
2019-01-19T12:04:37.214Z,6.17
2019-01-19T12:05:41.289Z,6.03
2019-01-19T12:06:45.359Z,5.45
2019-01-19T12:07:49.515Z,5.75
2019-01-19T12:08:55.210Z,5.58
2019-01-19T12:09:59.419Z,7.20
2019-01-19T12:11:03.480Z,7.70
2019-01-19T12:12:07.582Z,6.60
2019-01-19T12:13:11.950Z,7.42
2019-01-19T12:14:16.003Z,4.78
2019-01-19T12:15:20.132Z,6.95
2019-01-19T12:16:24.196Z,8.58
2019-01-19T12:17:28.483Z,6.37
2019-01-19T12:18:32.539Z,4.97
2019-01-19T12:19:36.598Z,4.30
2019-01-19T12:20:46.033Z,5.10
2019-01-19T12:21:50.124Z,4.92
2019-01-19T12:22:54.222Z,4.65
2019-01-19T12:23:58.342Z,6.78
2019-01-19T12:25:02.432Z,5.20
2019-01-19T12:26:06.546Z,7.45
2019-01-19T12:27:10.928Z,8.35
2019-01-19T12:28:15.005Z,4.58
2019-01-19T12:29:19.107Z,4.42
2019-01-19T12:30:25.138Z,4.80
2019-01-19T12:31:29.422Z,6.35
2019-01-19T12:32:33.507Z,6.85
2019-01-19T12:33:40.360Z,5.28
2019-01-19T12:34:44.435Z,5.67
2019-01-19T12:35:48.512Z,5.03
2019-01-19T12:36:52.573Z,5.33
2019-01-19T12:37:56.970Z,4.97
2019-01-19T12:39:01.087Z,8.03
2019-01-19T12:40:05.560Z,3.77
2019-01-19T12:41:09.739Z,4.87
2019-01-19T12:42:14.101Z,5.70
2019-01-19T12:43:22.867Z,5.28
2019-01-19T12:44:26.927Z,4.55
2019-01-19T12:45:40.082Z,5.08
2019-01-19T12:46:44.147Z,5.65
2019-01-19T12:47:48.259Z,4.15
2019-01-19T12:48:52.371Z,4.70
2019-01-19T12:49:56.427Z,7.45
2019-01-19T12:51:01.635Z,4.95
2019-01-19T12:52:05.782Z,4.97
2019-01-19T12:53:10.014Z,7.33
2019-01-19T12:54:14.211Z,6.65
2019-01-19T12:55:18.286Z,5.28
2019-01-19T12:56:22.356Z,6.92
2019-01-19T12:57:26.415Z,7.08
2019-01-19T12:58:30.514Z,10.25
2019-01-19T12:59:34.595Z,5.95
2019-01-19T13:00:38.690Z,6.40
2019-01-19T13:01:42.843Z,5.17
2019-01-19T13:02:46.935Z,5.83
2019-01-19T13:03:51.051Z,6.40
2019-01-19T13:04:55.107Z,6.72
2019-01-19T13:06:33.066Z,5.78
2019-01-19T13:07:37.152Z,4.78
2019-01-19T13:08:41.234Z,6.25
2019-01-19T13:09:48.368Z,6.25
2019-01-19T13:11:32.999Z,4.55
2019-01-19T13:12:47.271Z,7.90
2019-01-19T13:13:51.314Z,8.23
2019-01-19T13:15:04.190Z,6.20
2019-01-19T13:16:35.167Z,7.67
2019-01-19T13:18:15.025Z,4.75
2019-01-19T13:19:49.794Z,7.85
2019-01-19T13:21:29.592Z,4.87
2019-01-19T13:23:19.631Z,6.42
2019-01-19T13:24:36.850Z,3.90
2019-01-19T13:26:11.966Z,4.55
2019-01-19T13:27:51.028Z,4.47
2019-01-19T13:30:00.598Z,5.67
2019-01-19T13:31:41.615Z,5.08
2019-01-19T13:32:53.441Z,5.50
2019-01-19T13:34:37.532Z,5.33
2019-01-19T13:35:53.619Z,6.22
2019-01-19T13:37:38.595Z,5.15
2019-01-19T13:39:20.144Z,4.28
2019-01-19T13:40:47.459Z,8.73
2019-01-19T13:42:35.413Z,3.70
2019-01-19T13:44:08.929Z,6.22
2019-01-19T13:46:12.127Z,4.22
2019-01-19T13:47:50.094Z,11.38
2019-01-19T13:49:41.075Z,3.10
2019-01-19T13:51:07.529Z,4.35
2019-01-19T13:52:23.443Z,8.00
2019-01-19T13:54:17.103Z,7.75
2019-01-19T13:56:20.343Z,7.15
2019-01-19T13:57:54.984Z,3.62
2019-01-19T13:59:24.532Z,3.22
2019-01-19T14:00:51.457Z,4.08
2019-01-19T14:02:39.203Z,3.30
2019-01-19T14:03:58.779Z,2.60
2019-01-19T14:05:58.141Z,2.80
2019-01-19T14:07:33.852Z,3.27
2019-01-19T14:09:13.386Z,4.80
2019-01-19T14:10:29.310Z,2.60
2019-01-19T14:11:51.912Z,3.92
2019-01-19T14:13:41.919Z,6.45
2019-01-19T14:15:12.036Z,4.35
2019-01-19T14:16:57.008Z,3.62
2019-01-19T14:18:27.198Z,4.58
2019-01-19T14:19:47.796Z,5.53
2019-01-19T14:21:38.955Z,3.10
2019-01-19T14:23:17.994Z,4.92
2019-01-19T14:25:24.443Z,3.60
2019-01-19T14:27:10.154Z,3.15
2019-01-19T14:28:40.247Z,5.15
2019-01-19T14:30:08.555Z,4.83
2019-01-19T14:31:33.515Z,4.37
2019-01-19T14:33:01.863Z,6.28
2019-01-19T14:34:28.715Z,3.05
2019-01-19T14:36:11.348Z,3.67
2019-01-19T14:37:53.923Z,5.58
2019-01-19T14:39:19.619Z,4.92
2019-01-19T14:41:29.055Z,3.90
2019-01-19T14:43:03.930Z,6.05
2019-01-19T14:45:04.346Z,3.58
2019-01-19T14:46:28.941Z,4.17
2019-01-19T14:48:06.276Z,3.45
2019-01-19T14:49:49.044Z,3.98
2019-01-19T14:51:12.768Z,2.62
2019-01-19T14:53:00.247Z,4.90
2019-01-19T14:54:45.599Z,3.80
2019-01-19T14:56:36.146Z,4.25
2019-01-19T14:58:27.854Z,4.10
2019-01-19T15:00:14.524Z,3.72
2019-01-19T15:01:44.239Z,5.05
2019-01-19T15:03:13.343Z,5.58
2019-01-19T15:05:00.484Z,6.15
2019-01-19T15:06:23.239Z,5.75
2019-01-19T15:07:53.266Z,4.90
2019-01-19T15:09:21.831Z,7.35
2019-01-19T15:10:43.804Z,6.47
2019-01-19T15:12:34.955Z,5.37
2019-01-19T15:14:32.463Z,9.20
2019-01-19T15:15:50.100Z,6.33
2019-01-19T15:17:23.096Z,8.28
2019-01-19T15:19:32.223Z,6.95
2019-01-19T15:21:09.890Z,12.85
2019-01-19T15:23:02.834Z,8.45
2019-01-19T15:24:29.867Z,6.37
2019-01-19T15:25:49.243Z,5.75
2019-01-19T15:27:31.687Z,6.85
2019-01-19T15:29:09.194Z,4.75
2019-01-19T15:30:41.808Z,5.80
2019-01-19T15:32:44.974Z,6.58
2019-01-19T15:34:39.223Z,5.67
2019-01-19T15:36:08.737Z,6.37
2019-01-19T15:37:42.515Z,4.22
2019-01-19T15:39:31.175Z,4.42
2019-01-19T15:40:58.543Z,9.23
2019-01-19T15:42:22.302Z,9.20
2019-01-19T15:43:55.767Z,8.00
2019-01-19T15:45:32.850Z,7.05
2019-01-19T15:47:18.338Z,6.65
2019-01-19T15:48:59.485Z,6.08
2019-01-19T15:50:36.331Z,6.12
2019-01-19T15:52:33.518Z,8.05
2019-01-19T15:54:06.227Z,4.08
2019-01-19T15:55:41.727Z,7.50
2019-01-19T15:57:21.079Z,5.33
2019-01-19T15:58:57.307Z,3.87
2019-01-19T16:00:30.863Z,3.62
2019-01-19T16:02:17.715Z,4.08
2019-01-19T16:04:08.676Z,5.17
2019-01-19T16:05:38.384Z,3.42
2019-01-19T16:07:05.032Z,6.90
2019-01-19T16:08:23.392Z,5.65
2019-01-19T16:10:16.447Z,5.28
2019-01-19T16:11:55.420Z,7.65
2019-01-19T16:13:23.533Z,4.37
2019-01-19T16:15:12.028Z,3.60
2019-01-19T16:16:49.167Z,5.62
2019-01-19T16:18:29.192Z,6.67
2019-01-19T16:20:29.031Z,4.08
2019-01-19T16:22:18.088Z,5.25
2019-01-19T16:23:49.841Z,6.40
2019-01-19T16:25:53.008Z,4.30
2019-01-19T16:27:31.576Z,5.50
2019-01-19T16:29:16.667Z,4.58
2019-01-19T16:30:57.687Z,2.72
2019-01-19T16:32:26.763Z,8.43
2019-01-19T16:34:07.403Z,5.80
2019-01-19T16:35:57.843Z,5.25
2019-01-19T16:37:26.915Z,10.48
2019-01-19T16:39:10.295Z,9.13
2019-01-19T16:41:02.268Z,6.72
2019-01-19T16:42:42.170Z,8.28
2019-01-19T16:44:13.690Z,11.78
2019-01-19T16:45:35.358Z,16.20
2019-01-19T16:47:18.450Z,16.60
2019-01-19T16:49:13.476Z,13.28
2019-01-19T16:51:01.907Z,14.10
2019-01-19T16:52:45.957Z,13.10
2019-01-19T16:54:29.843Z,11.10
2019-01-19T16:56:14.423Z,13.13
2019-01-19T16:58:01.695Z,11.50